sensor_id;sensor_type;location;lat;lon;timestamp;temperature;humidity
25963;DHT22;13760;52.588;13.406;2023-11-22T00:00:51;0.60;99.90
25963;DHT22;13760;52.588;13.406;2023-11-22T00:03:17;0.60;99.90
25963;DHT22;13760;52.588;13.406;2023-11-22T00:05:42;0.60;99.90
25963;DHT22;13760;52.588;13.406;2023-11-22T00:08:08;0.50;99.90
25963;DHT22;13760;52.588;13.406;2023-11-22T00:10:33;0.50;99.90
25963;DHT22;13760;52.588;13.406;2023-11-22T00:12:59;0.50;99.90
25963;DHT22;13760;52.588;13.406;2023-11-22T00:15:25;0.50;99.90
25963;DHT22;13760;52.588;13.406;2023-11-22T00:17:51;0.50;99.90
25963;DHT22;13760;52.588;13.406;2023-11-22T00:20:18;0.50;99.90
25963;DHT22;13760;52.588;13.406;2023-11-22T00:22:44;0.50;99.90
25963;DHT22;13760;52.588;13.406;2023-11-22T00:25:10;0.50;99.90
25963;DHT22;13760;52.588;13.406;2023-11-22T00:27:38;0.50;99.90
25963;DHT22;13760;52.588;13.406;2023-11-22T00:30:05;0.50;99.90
25963;DHT22;13760;52.588;13.406;2023-11-22T00:32:30;0.40;99.90
25963;DHT22;13760;52.588;13.406;2023-11-22T00:34:56;0.40;99.90
25963;DHT22;13760;52.588;13.406;2023-11-22T00:37:21;0.50;99.90
25963;DHT22;13760;52.588;13.406;2023-11-22T00:39:47;0.50;99.90
25963;DHT22;13760;52.588;13.406;2023-11-22T00:42:13;0.40;99.90
25963;DHT22;13760;52.588;13.406;2023-11-22T00:44:38;0.40;99.90
25963;DHT22;13760;52.588;13.406;2023-11-22T00:47:04;0.40;99.90
25963;DHT22;13760;52.588;13.406;2023-11-22T00:49:30;0.40;99.90
25963;DHT22;13760;52.588;13.406;2023-11-22T00:51:56;0.40;99.90
25963;DHT22;13760;52.588;13.406;2023-11-22T00:54:22;0.40;99.90
25963;DHT22;13760;52.588;13.406;2023-11-22T00:56:47;0.40;99.90
25963;DHT22;13760;52.588;13.406;2023-11-22T00:59:13;0.30;99.90
25963;DHT22;13760;52.588;13.406;2023-11-22T01:01:40;0.30;99.90
25963;DHT22;13760;52.588;13.406;2023-11-22T01:04:06;0.30;99.90
25963;DHT22;13760;52.588;13.406;2023-11-22T01:06:32;0.20;99.90
25963;DHT22;13760;52.588;13.406;2023-11-22T01:08:58;0.20;99.90
25963;DHT22;13760;52.588;13.406;2023-11-22T01:11:24;0.20;99.90
25963;DHT22;13760;52.588;13.406;2023-11-22T01:13:50;0.20;99.90
25963;DHT22;13760;52.588;13.406;2023-11-22T01:16:15;0.20;99.90
25963;DHT22;13760;52.588;13.406;2023-11-22T01:18:41;0.10;99.90
25963;DHT22;13760;52.588;13.406;2023-11-22T01:21:07;0.10;99.90
25963;DHT22;13760;52.588;13.406;2023-11-22T01:23:33;0.10;99.90
25963;DHT22;13760;52.588;13.406;2023-11-22T01:25:59;0.10;99.90
25963;DHT22;13760;52.588;13.406;2023-11-22T01:28:25;0.10;99.90
25963;DHT22;13760;52.588;13.406;2023-11-22T01:30:53;0.00;99.90
25963;DHT22;13760;52.588;13.406;2023-11-22T01:33:22;0.00;99.90
25963;DHT22;13760;52.588;13.406;2023-11-22T01:35:48;0.00;99.90
25963;DHT22;13760;52.588;13.406;2023-11-22T01:38:16;0.00;99.90
25963;DHT22;13760;52.588;13.406;2023-11-22T01:40:46;0.00;99.90
25963;DHT22;13760;52.588;13.406;2023-11-22T01:43:18;-0.10;99.90
25963;DHT22;13760;52.588;13.406;2023-11-22T01:45:44;-0.10;99.90
25963;DHT22;13760;52.588;13.406;2023-11-22T01:48:11;-0.10;99.90
25963;DHT22;13760;52.588;13.406;2023-11-22T01:50:41;-0.10;99.90
25963;DHT22;13760;52.588;13.406;2023-11-22T01:53:08;-0.10;99.90
25963;DHT22;13760;52.588;13.406;2023-11-22T01:55:34;-0.10;99.90
25963;DHT22;13760;52.588;13.406;2023-11-22T01:58:00;-0.10;99.90
25963;DHT22;13760;52.588;13.406;2023-11-22T02:00:34;-0.20;99.90
25963;DHT22;13760;52.588;13.406;2023-11-22T02:03:01;-0.20;99.90
25963;DHT22;13760;52.588;13.406;2023-11-22T02:05:27;-0.20;99.90
25963;DHT22;13760;52.588;13.406;2023-11-22T02:07:53;-0.20;99.90
25963;DHT22;13760;52.588;13.406;2023-11-22T02:10:18;-0.20;99.90
25963;DHT22;13760;52.588;13.406;2023-11-22T02:12:44;-0.30;99.90
25963;DHT22;13760;52.588;13.406;2023-11-22T02:15:10;-0.30;99.90
25963;DHT22;13760;52.588;13.406;2023-11-22T02:17:36;-0.30;99.90
25963;DHT22;13760;52.588;13.406;2023-11-22T02:20:01;-0.30;99.90
25963;DHT22;13760;52.588;13.406;2023-11-22T02:22:31;-0.40;99.90
25963;DHT22;13760;52.588;13.406;2023-11-22T02:24:57;-0.40;99.90
25963;DHT22;13760;52.588;13.406;2023-11-22T02:27:22;-0.40;99.90
25963;DHT22;13760;52.588;13.406;2023-11-22T02:29:48;-0.50;99.90
25963;DHT22;13760;52.588;13.406;2023-11-22T02:32:15;-0.50;99.90
25963;DHT22;13760;52.588;13.406;2023-11-22T02:34:41;-0.60;99.90
25963;DHT22;13760;52.588;13.406;2023-11-22T02:37:06;-0.60;99.90
25963;DHT22;13760;52.588;13.406;2023-11-22T02:39:41;-0.70;99.90
25963;DHT22;13760;52.588;13.406;2023-11-22T02:42:09;-0.70;99.90
25963;DHT22;13760;52.588;13.406;2023-11-22T02:44:34;-0.70;99.90
25963;DHT22;13760;52.588;13.406;2023-11-22T02:47:00;-0.70;99.90
25963;DHT22;13760;52.588;13.406;2023-11-22T02:49:25;-0.70;99.90
25963;DHT22;13760;52.588;13.406;2023-11-22T02:51:51;-0.70;99.90
25963;DHT22;13760;52.588;13.406;2023-11-22T02:54:16;-0.70;99.90
25963;DHT22;13760;52.588;13.406;2023-11-22T02:56:42;-0.70;99.90
25963;DHT22;13760;52.588;13.406;2023-11-22T02:59:07;-0.70;99.90
25963;DHT22;13760;52.588;13.406;2023-11-22T03:01:38;-0.70;99.90
25963;DHT22;13760;52.588;13.406;2023-11-22T03:04:08;-0.70;99.90
25963;DHT22;13760;52.588;13.406;2023-11-22T03:06:34;-0.80;99.90
25963;DHT22;13760;52.588;13.406;2023-11-22T03:09:01;-0.80;99.90
25963;DHT22;13760;52.588;13.406;2023-11-22T03:11:27;-0.80;99.90
25963;DHT22;13760;52.588;13.406;2023-11-22T03:13:53;-0.80;99.90
25963;DHT22;13760;52.588;13.406;2023-11-22T03:16:18;-0.80;99.90
25963;DHT22;13760;52.588;13.406;2023-11-22T03:18:44;-0.80;99.90
25963;DHT22;13760;52.588;13.406;2023-11-22T03:21:09;-0.90;99.90
25963;DHT22;13760;52.588;13.406;2023-11-22T03:23:35;-0.90;99.90
25963;DHT22;13760;52.588;13.406;2023-11-22T03:26:01;-0.90;99.90
25963;DHT22;13760;52.588;13.406;2023-11-22T03:28:26;-0.80;99.90
25963;DHT22;13760;52.588;13.406;2023-11-22T03:30:55;-0.80;99.90
25963;DHT22;13760;52.588;13.406;2023-11-22T03:33:21;-0.80;99.90
25963;DHT22;13760;52.588;13.406;2023-11-22T03:35:46;-0.80;99.90
25963;DHT22;13760;52.588;13.406;2023-11-22T03:38:12;-0.80;99.90
25963;DHT22;13760;52.588;13.406;2023-11-22T03:40:37;-0.80;99.90
25963;DHT22;13760;52.588;13.406;2023-11-22T03:43:03;-0.80;99.90
25963;DHT22;13760;52.588;13.406;2023-11-22T03:45:28;-0.80;99.90
25963;DHT22;13760;52.588;13.406;2023-11-22T03:47:54;-0.80;99.90
25963;DHT22;13760;52.588;13.406;2023-11-22T03:50:20;-0.80;99.90
25963;DHT22;13760;52.588;13.406;2023-11-22T03:52:45;-0.80;99.90
25963;DHT22;13760;52.588;13.406;2023-11-22T03:55:12;-0.80;99.90
25963;DHT22;13760;52.588;13.406;2023-11-22T03:57:37;-0.80;99.90
25963;DHT22;13760;52.588;13.406;2023-11-22T04:00:03;-0.80;99.90
25963;DHT22;13760;52.588;13.406;2023-11-22T04:02:31;-0.90;99.90
25963;DHT22;13760;52.588;13.406;2023-11-22T04:04:57;-0.90;99.90
25963;DHT22;13760;52.588;13.406;2023-11-22T04:07:22;-0.90;99.90
25963;DHT22;13760;52.588;13.406;2023-11-22T04:09:48;-1.00;99.90
25963;DHT22;13760;52.588;13.406;2023-11-22T04:12:14;-1.00;99.90
25963;DHT22;13760;52.588;13.406;2023-11-22T04:14:39;-1.00;99.90
25963;DHT22;13760;52.588;13.406;2023-11-22T04:17:05;-1.00;99.90
25963;DHT22;13760;52.588;13.406;2023-11-22T04:19:31;-1.00;99.90
25963;DHT22;13760;52.588;13.406;2023-11-22T04:21:56;-1.00;99.90
25963;DHT22;13760;52.588;13.406;2023-11-22T04:24:22;-1.00;99.90
25963;DHT22;13760;52.588;13.406;2023-11-22T04:26:48;-1.00;99.90
25963;DHT22;13760;52.588;13.406;2023-11-22T04:29:13;-1.00;99.90
25963;DHT22;13760;52.588;13.406;2023-11-22T04:31:39;-1.00;99.90
25963;DHT22;13760;52.588;13.406;2023-11-22T04:34:04;-1.00;99.90
25963;DHT22;13760;52.588;13.406;2023-11-22T04:36:30;-1.00;99.90
25963;DHT22;13760;52.588;13.406;2023-11-22T04:38:56;-1.00;99.90
25963;DHT22;13760;52.588;13.406;2023-11-22T04:41:21;-1.10;99.90
25963;DHT22;13760;52.588;13.406;2023-11-22T04:43:48;-1.10;99.90
25963;DHT22;13760;52.588;13.406;2023-11-22T04:46:13;-1.10;99.90
25963;DHT22;13760;52.588;13.406;2023-11-22T04:48:39;-1.10;99.90
25963;DHT22;13760;52.588;13.406;2023-11-22T04:51:06;-1.10;99.90
25963;DHT22;13760;52.588;13.406;2023-11-22T04:53:31;-1.10;99.90
25963;DHT22;13760;52.588;13.406;2023-11-22T04:55:57;-1.10;99.90
25963;DHT22;13760;52.588;13.406;2023-11-22T04:58:24;-1.10;99.90
25963;DHT22;13760;52.588;13.406;2023-11-22T05:00:50;-1.20;99.90
25963;DHT22;13760;52.588;13.406;2023-11-22T05:03:15;-1.20;99.90
25963;DHT22;13760;52.588;13.406;2023-11-22T05:05:41;-1.20;99.90
25963;DHT22;13760;52.588;13.406;2023-11-22T05:08:06;-1.20;99.90
25963;DHT22;13760;52.588;13.406;2023-11-22T05:10:32;-1.30;99.90
25963;DHT22;13760;52.588;13.406;2023-11-22T05:12:57;-1.30;99.90
25963;DHT22;13760;52.588;13.406;2023-11-22T05:15:26;-1.40;99.90
25963;DHT22;13760;52.588;13.406;2023-11-22T05:17:51;-1.40;99.90
25963;DHT22;13760;52.588;13.406;2023-11-22T05:20:17;-1.40;99.90
25963;DHT22;13760;52.588;13.406;2023-11-22T05:22:42;-1.40;99.90
25963;DHT22;13760;52.588;13.406;2023-11-22T05:25:08;-1.40;99.90
25963;DHT22;13760;52.588;13.406;2023-11-22T05:27:34;-1.40;99.90
25963;DHT22;13760;52.588;13.406;2023-11-22T05:30:00;-1.50;99.90
25963;DHT22;13760;52.588;13.406;2023-11-22T05:32:27;-1.50;99.90
25963;DHT22;13760;52.588;13.406;2023-11-22T05:34:52;-1.50;99.90
25963;DHT22;13760;52.588;13.406;2023-11-22T05:37:20;-1.50;99.90
25963;DHT22;13760;52.588;13.406;2023-11-22T05:39:45;-1.50;99.90
25963;DHT22;13760;52.588;13.406;2023-11-22T05:42:11;-1.60;99.90
25963;DHT22;13760;52.588;13.406;2023-11-22T05:44:37;-1.60;99.90
25963;DHT22;13760;52.588;13.406;2023-11-22T05:47:02;-1.60;99.90
25963;DHT22;13760;52.588;13.406;2023-11-22T05:49:28;-1.60;99.90
25963;DHT22;13760;52.588;13.406;2023-11-22T05:51:53;-1.70;99.90
25963;DHT22;13760;52.588;13.406;2023-11-22T05:54:19;-1.70;99.90
25963;DHT22;13760;52.588;13.406;2023-11-22T05:56:44;-1.80;99.90
25963;DHT22;13760;52.588;13.406;2023-11-22T05:59:10;-1.80;99.90
25963;DHT22;13760;52.588;13.406;2023-11-22T06:01:36;-1.80;99.90
25963;DHT22;13760;52.588;13.406;2023-11-22T06:04:01;-1.80;99.90
25963;DHT22;13760;52.588;13.406;2023-11-22T06:06:28;-1.80;99.90
25963;DHT22;13760;52.588;13.406;2023-11-22T06:08:53;-1.80;99.90
25963;DHT22;13760;52.588;13.406;2023-11-22T06:11:19;-1.90;99.90
25963;DHT22;13760;52.588;13.406;2023-11-22T06:13:46;-1.80;99.90
25963;DHT22;13760;52.588;13.406;2023-11-22T06:16:12;-1.80;99.90
25963;DHT22;13760;52.588;13.406;2023-11-22T06:18:38;-1.80;99.90
25963;DHT22;13760;52.588;13.406;2023-11-22T06:21:09;-1.80;99.90
25963;DHT22;13760;52.588;13.406;2023-11-22T06:23:34;-1.80;99.90
25963;DHT22;13760;52.588;13.406;2023-11-22T06:26:00;-1.80;99.90
25963;DHT22;13760;52.588;13.406;2023-11-22T06:28:26;-1.80;99.90
25963;DHT22;13760;52.588;13.406;2023-11-22T06:30:52;-1.80;99.90
25963;DHT22;13760;52.588;13.406;2023-11-22T06:33:18;-1.80;99.90
25963;DHT22;13760;52.588;13.406;2023-11-22T06:35:43;-1.80;99.90
25963;DHT22;13760;52.588;13.406;2023-11-22T06:38:09;-1.80;99.90
25963;DHT22;13760;52.588;13.406;2023-11-22T06:40:35;-1.80;99.90
25963;DHT22;13760;52.588;13.406;2023-11-22T06:43:01;-1.80;99.90
25963;DHT22;13760;52.588;13.406;2023-11-22T06:45:26;-1.80;99.90
25963;DHT22;13760;52.588;13.406;2023-11-22T06:47:52;-1.80;99.90
25963;DHT22;13760;52.588;13.406;2023-11-22T06:50:18;-1.80;99.90
25963;DHT22;13760;52.588;13.406;2023-11-22T06:52:44;-1.80;99.90
25963;DHT22;13760;52.588;13.406;2023-11-22T06:55:11;-1.80;99.90
25963;DHT22;13760;52.588;13.406;2023-11-22T06:57:37;-1.70;99.90
25963;DHT22;13760;52.588;13.406;2023-11-22T07:00:07;-1.80;99.90
25963;DHT22;13760;52.588;13.406;2023-11-22T07:02:35;-1.80;99.90
25963;DHT22;13760;52.588;13.406;2023-11-22T07:05:02;-1.80;99.90
25963;DHT22;13760;52.588;13.406;2023-11-22T07:07:29;-1.80;99.90
25963;DHT22;13760;52.588;13.406;2023-11-22T07:09:55;-1.80;99.90
25963;DHT22;13760;52.588;13.406;2023-11-22T07:12:24;-1.80;99.90
25963;DHT22;13760;52.588;13.406;2023-11-22T07:14:53;-1.80;99.90
25963;DHT22;13760;52.588;13.406;2023-11-22T07:17:19;-1.80;99.90
25963;DHT22;13760;52.588;13.406;2023-11-22T07:19:48;-1.90;99.90
25963;DHT22;13760;52.588;13.406;2023-11-22T07:22:18;-1.90;99.90
25963;DHT22;13760;52.588;13.406;2023-11-22T07:24:49;-1.80;99.90
25963;DHT22;13760;52.588;13.406;2023-11-22T07:27:20;-1.90;99.90
25963;DHT22;13760;52.588;13.406;2023-11-22T07:29:47;-1.90;99.90
25963;DHT22;13760;52.588;13.406;2023-11-22T07:32:13;-1.90;99.90
25963;DHT22;13760;52.588;13.406;2023-11-22T07:34:47;-1.80;99.90
25963;DHT22;13760;52.588;13.406;2023-11-22T07:37:36;-1.80;99.90
25963;DHT22;13760;52.588;13.406;2023-11-22T07:40:06;-1.70;99.90
25963;DHT22;13760;52.588;13.406;2023-11-22T07:42:33;-1.70;99.90
25963;DHT22;13760;52.588;13.406;2023-11-22T07:45:05;-1.60;99.90
25963;DHT22;13760;52.588;13.406;2023-11-22T07:47:32;-1.60;99.90
25963;DHT22;13760;52.588;13.406;2023-11-22T07:50:02;-1.50;99.90
25963;DHT22;13760;52.588;13.406;2023-11-22T07:52:49;-1.50;99.90
25963;DHT22;13760;52.588;13.406;2023-11-22T07:55:26;-1.50;99.90
25963;DHT22;13760;52.588;13.406;2023-11-22T07:57:53;-1.40;99.90
25963;DHT22;13760;52.588;13.406;2023-11-22T08:00:21;-1.40;99.90
25963;DHT22;13760;52.588;13.406;2023-11-22T08:02:48;-1.40;99.90
25963;DHT22;13760;52.588;13.406;2023-11-22T08:05:15;-1.30;99.90
25963;DHT22;13760;52.588;13.406;2023-11-22T08:07:42;-1.30;99.90
25963;DHT22;13760;52.588;13.406;2023-11-22T08:10:10;-1.30;99.90
25963;DHT22;13760;52.588;13.406;2023-11-22T08:12:44;-1.20;99.90
25963;DHT22;13760;52.588;13.406;2023-11-22T08:15:10;-1.20;99.90
25963;DHT22;13760;52.588;13.406;2023-11-22T08:17:38;-1.20;99.90
25963;DHT22;13760;52.588;13.406;2023-11-22T08:20:05;-1.10;99.90
25963;DHT22;13760;52.588;13.406;2023-11-22T08:22:31;-1.00;99.90
25963;DHT22;13760;52.588;13.406;2023-11-22T08:25:03;-1.00;99.90
25963;DHT22;13760;52.588;13.406;2023-11-22T08:27:29;-1.00;99.90
25963;DHT22;13760;52.588;13.406;2023-11-22T08:29:55;-1.00;99.90
25963;DHT22;13760;52.588;13.406;2023-11-22T08:32:20;-0.90;99.90
25963;DHT22;13760;52.588;13.406;2023-11-22T08:34:49;-0.90;99.90
25963;DHT22;13760;52.588;13.406;2023-11-22T08:37:15;-0.90;99.90
25963;DHT22;13760;52.588;13.406;2023-11-22T08:39:41;-0.80;99.90
25963;DHT22;13760;52.588;13.406;2023-11-22T08:42:07;-0.80;99.90
25963;DHT22;13760;52.588;13.406;2023-11-22T08:44:36;-0.80;99.90
25963;DHT22;13760;52.588;13.406;2023-11-22T08:47:07;-0.80;99.90
25963;DHT22;13760;52.588;13.406;2023-11-22T08:49:34;-0.70;99.90
25963;DHT22;13760;52.588;13.406;2023-11-22T08:52:03;-0.70;99.90
25963;DHT22;13760;52.588;13.406;2023-11-22T08:54:32;-0.70;99.90
25963;DHT22;13760;52.588;13.406;2023-11-22T08:56:58;-0.60;99.90
25963;DHT22;13760;52.588;13.406;2023-11-22T08:59:23;-0.60;99.90
25963;DHT22;13760;52.588;13.406;2023-11-22T09:01:49;-0.50;99.90
25963;DHT22;13760;52.588;13.406;2023-11-22T09:04:14;-0.50;99.90
25963;DHT22;13760;52.588;13.406;2023-11-22T09:06:41;-0.50;99.90
25963;DHT22;13760;52.588;13.406;2023-11-22T09:09:07;-0.40;99.90
25963;DHT22;13760;52.588;13.406;2023-11-22T09:11:33;-0.40;99.90
25963;DHT22;13760;52.588;13.406;2023-11-22T09:14:00;-0.30;99.90
25963;DHT22;13760;52.588;13.406;2023-11-22T09:16:34;-0.20;99.90
25963;DHT22;13760;52.588;13.406;2023-11-22T09:19:00;-0.20;99.90
25963;DHT22;13760;52.588;13.406;2023-11-22T09:21:26;-0.10;99.90
25963;DHT22;13760;52.588;13.406;2023-11-22T09:23:51;-0.10;99.90
25963;DHT22;13760;52.588;13.406;2023-11-22T09:26:17;-0.10;99.90
25963;DHT22;13760;52.588;13.406;2023-11-22T09:28:42;-0.10;99.90
25963;DHT22;13760;52.588;13.406;2023-11-22T09:31:08;0.00;99.90
25963;DHT22;13760;52.588;13.406;2023-11-22T09:33:34;0.00;99.90
25963;DHT22;13760;52.588;13.406;2023-11-22T09:36:02;0.00;99.90
25963;DHT22;13760;52.588;13.406;2023-11-22T09:38:29;0.10;99.90
25963;DHT22;13760;52.588;13.406;2023-11-22T09:40:56;0.10;99.90
25963;DHT22;13760;52.588;13.406;2023-11-22T09:43:22;0.10;99.90
25963;DHT22;13760;52.588;13.406;2023-11-22T09:45:50;0.20;99.90
25963;DHT22;13760;52.588;13.406;2023-11-22T09:48:20;0.20;99.90
25963;DHT22;13760;52.588;13.406;2023-11-22T09:53:58;0.20;99.90
25963;DHT22;13760;52.588;13.406;2023-11-22T09:56:26;0.30;99.90
25963;DHT22;13760;52.588;13.406;2023-11-22T09:58:57;0.30;99.90
25963;DHT22;13760;52.588;13.406;2023-11-22T10:01:27;0.30;99.90
25963;DHT22;13760;52.588;13.406;2023-11-22T10:04:02;0.40;99.90
25963;DHT22;13760;52.588;13.406;2023-11-22T10:06:31;0.30;99.90
25963;DHT22;13760;52.588;13.406;2023-11-22T10:09:15;0.40;99.90
25963;DHT22;13760;52.588;13.406;2023-11-22T10:12:11;0.50;99.90
25963;DHT22;13760;52.588;13.406;2023-11-22T10:14:53;0.50;99.90
25963;DHT22;13760;52.588;13.406;2023-11-22T10:17:19;0.50;99.90
25963;DHT22;13760;52.588;13.406;2023-11-22T10:19:46;0.60;99.90
25963;DHT22;13760;52.588;13.406;2023-11-22T10:22:11;0.60;99.90
25963;DHT22;13760;52.588;13.406;2023-11-22T10:24:43;0.60;99.90
25963;DHT22;13760;52.588;13.406;2023-11-22T10:27:10;0.70;99.90
25963;DHT22;13760;52.588;13.406;2023-11-22T10:29:36;0.70;99.90
25963;DHT22;13760;52.588;13.406;2023-11-22T10:32:06;0.80;99.90
25963;DHT22;13760;52.588;13.406;2023-11-22T10:34:32;0.80;99.90
25963;DHT22;13760;52.588;13.406;2023-11-22T10:36:58;0.80;99.90
25963;DHT22;13760;52.588;13.406;2023-11-22T10:39:27;0.90;99.90
25963;DHT22;13760;52.588;13.406;2023-11-22T10:41:52;0.90;99.90
25963;DHT22;13760;52.588;13.406;2023-11-22T10:44:20;0.90;99.90
25963;DHT22;13760;52.588;13.406;2023-11-22T10:46:47;0.90;99.90
25963;DHT22;13760;52.588;13.406;2023-11-22T10:49:12;0.90;99.90
25963;DHT22;13760;52.588;13.406;2023-11-22T10:51:40;1.00;99.90
25963;DHT22;13760;52.588;13.406;2023-11-22T10:54:06;1.00;99.90
25963;DHT22;13760;52.588;13.406;2023-11-22T10:56:39;1.00;99.90
25963;DHT22;13760;52.588;13.406;2023-11-22T10:59:13;1.00;99.90
25963;DHT22;13760;52.588;13.406;2023-11-22T11:01:44;1.10;99.90
25963;DHT22;13760;52.588;13.406;2023-11-22T11:04:19;1.10;99.90
25963;DHT22;13760;52.588;13.406;2023-11-22T11:06:48;1.20;99.90
25963;DHT22;13760;52.588;13.406;2023-11-22T11:09:19;1.20;99.90
25963;DHT22;13760;52.588;13.406;2023-11-22T11:11:46;1.30;99.90
25963;DHT22;13760;52.588;13.406;2023-11-22T11:14:13;1.30;99.90
25963;DHT22;13760;52.588;13.406;2023-11-22T11:16:41;1.30;99.90
25963;DHT22;13760;52.588;13.406;2023-11-22T11:19:12;1.40;99.90
25963;DHT22;13760;52.588;13.406;2023-11-22T11:21:39;1.50;99.90
25963;DHT22;13760;52.588;13.406;2023-11-22T11:24:05;1.60;99.90
25963;DHT22;13760;52.588;13.406;2023-11-22T11:26:34;1.60;99.90
25963;DHT22;13760;52.588;13.406;2023-11-22T11:29:00;1.70;99.90
25963;DHT22;13760;52.588;13.406;2023-11-22T11:31:31;1.80;99.90
25963;DHT22;13760;52.588;13.406;2023-11-22T11:33:57;1.90;99.90
25963;DHT22;13760;52.588;13.406;2023-11-22T11:36:30;1.90;99.90
25963;DHT22;13760;52.588;13.406;2023-11-22T11:39:06;2.10;99.90
25963;DHT22;13760;52.588;13.406;2023-11-22T11:41:35;2.10;99.90
25963;DHT22;13760;52.588;13.406;2023-11-22T11:44:07;2.30;99.90
25963;DHT22;13760;52.588;13.406;2023-11-22T11:46:34;2.40;99.90
25963;DHT22;13760;52.588;13.406;2023-11-22T11:49:06;2.50;99.90
25963;DHT22;13760;52.588;13.406;2023-11-22T11:51:33;2.60;99.90
25963;DHT22;13760;52.588;13.406;2023-11-22T11:53:58;2.70;99.90
25963;DHT22;13760;52.588;13.406;2023-11-22T11:56:24;2.80;99.90
25963;DHT22;13760;52.588;13.406;2023-11-22T11:58:51;2.90;99.90
25963;DHT22;13760;52.588;13.406;2023-11-22T12:01:18;3.00;99.90
25963;DHT22;13760;52.588;13.406;2023-11-22T12:03:45;3.00;99.90
25963;DHT22;13760;52.588;13.406;2023-11-22T12:06:15;3.00;99.90
25963;DHT22;13760;52.588;13.406;2023-11-22T12:08:41;3.00;99.90
25963;DHT22;13760;52.588;13.406;2023-11-22T12:11:07;2.90;99.90
25963;DHT22;13760;52.588;13.406;2023-11-22T12:13:34;2.80;99.90
25963;DHT22;13760;52.588;13.406;2023-11-22T12:16:04;2.70;99.90
25963;DHT22;13760;52.588;13.406;2023-11-22T12:18:40;2.70;99.90
25963;DHT22;13760;52.588;13.406;2023-11-22T12:21:06;2.60;99.90
25963;DHT22;13760;52.588;13.406;2023-11-22T12:23:32;2.60;99.90
25963;DHT22;13760;52.588;13.406;2023-11-22T12:25:59;2.60;99.90
25963;DHT22;13760;52.588;13.406;2023-11-22T12:28:27;2.60;99.90
25963;DHT22;13760;52.588;13.406;2023-11-22T12:30:53;2.60;99.90
25963;DHT22;13760;52.588;13.406;2023-11-22T12:33:19;2.50;99.90
25963;DHT22;13760;52.588;13.406;2023-11-22T12:35:48;2.50;99.90
25963;DHT22;13760;52.588;13.406;2023-11-22T12:38:14;2.50;99.90
25963;DHT22;13760;52.588;13.406;2023-11-22T12:40:44;2.60;99.90
25963;DHT22;13760;52.588;13.406;2023-11-22T12:43:12;2.50;99.90
25963;DHT22;13760;52.588;13.406;2023-11-22T12:45:39;2.60;99.90
25963;DHT22;13760;52.588;13.406;2023-11-22T12:48:25;2.60;99.90
25963;DHT22;13760;52.588;13.406;2023-11-22T12:50:52;2.60;99.90
25963;DHT22;13760;52.588;13.406;2023-11-22T12:53:18;2.60;99.90
25963;DHT22;13760;52.588;13.406;2023-11-22T12:55:51;2.60;99.90
25963;DHT22;13760;52.588;13.406;2023-11-22T12:58:18;2.60;99.90
25963;DHT22;13760;52.588;13.406;2023-11-22T13:00:45;2.60;99.90
25963;DHT22;13760;52.588;13.406;2023-11-22T13:03:12;2.60;99.90
25963;DHT22;13760;52.588;13.406;2023-11-22T13:05:44;2.60;99.90
25963;DHT22;13760;52.588;13.406;2023-11-22T13:08:11;2.60;99.90
25963;DHT22;13760;52.588;13.406;2023-11-22T13:10:39;2.60;99.90
25963;DHT22;13760;52.588;13.406;2023-11-22T13:13:05;2.60;99.90
25963;DHT22;13760;52.588;13.406;2023-11-22T13:15:34;2.60;99.90
25963;DHT22;13760;52.588;13.406;2023-11-22T13:18:00;2.60;99.90
25963;DHT22;13760;52.588;13.406;2023-11-22T13:20:26;2.60;99.90
25963;DHT22;13760;52.588;13.406;2023-11-22T13:22:53;2.60;99.90
25963;DHT22;13760;52.588;13.406;2023-11-22T13:25:19;2.60;99.90
25963;DHT22;13760;52.588;13.406;2023-11-22T13:27:46;2.50;99.90
25963;DHT22;13760;52.588;13.406;2023-11-22T13:30:14;2.50;99.90
25963;DHT22;13760;52.588;13.406;2023-11-22T13:32:40;2.60;99.90
25963;DHT22;13760;52.588;13.406;2023-11-22T13:35:07;2.50;99.90
25963;DHT22;13760;52.588;13.406;2023-11-22T13:37:39;2.50;99.90
25963;DHT22;13760;52.588;13.406;2023-11-22T13:40:09;2.50;99.90
25963;DHT22;13760;52.588;13.406;2023-11-22T13:42:42;2.50;99.90
25963;DHT22;13760;52.588;13.406;2023-11-22T13:45:08;2.50;99.90
25963;DHT22;13760;52.588;13.406;2023-11-22T13:47:33;2.50;99.90
25963;DHT22;13760;52.588;13.406;2023-11-22T13:49:59;2.50;99.90
25963;DHT22;13760;52.588;13.406;2023-11-22T13:52:24;2.50;99.90
25963;DHT22;13760;52.588;13.406;2023-11-22T13:54:50;2.40;99.90
25963;DHT22;13760;52.588;13.406;2023-11-22T13:57:18;2.40;99.90
25963;DHT22;13760;52.588;13.406;2023-11-22T13:59:43;2.40;99.90
25963;DHT22;13760;52.588;13.406;2023-11-22T14:02:09;2.40;99.90
25963;DHT22;13760;52.588;13.406;2023-11-22T14:04:34;2.40;99.90
25963;DHT22;13760;52.588;13.406;2023-11-22T14:07:00;2.30;99.90
25963;DHT22;13760;52.588;13.406;2023-11-22T14:09:26;2.30;99.90
25963;DHT22;13760;52.588;13.406;2023-11-22T14:11:52;2.40;99.90
25963;DHT22;13760;52.588;13.406;2023-11-22T14:14:18;2.30;99.90
25963;DHT22;13760;52.588;13.406;2023-11-22T14:16:44;2.30;99.90
25963;DHT22;13760;52.588;13.406;2023-11-22T14:19:11;2.30;99.90
25963;DHT22;13760;52.588;13.406;2023-11-22T14:21:38;2.20;99.90
25963;DHT22;13760;52.588;13.406;2023-11-22T14:24:04;2.20;99.90
25963;DHT22;13760;52.588;13.406;2023-11-22T14:26:30;2.20;99.90
25963;DHT22;13760;52.588;13.406;2023-11-22T14:28:55;2.20;99.90
25963;DHT22;13760;52.588;13.406;2023-11-22T14:31:21;2.10;99.90
25963;DHT22;13760;52.588;13.406;2023-11-22T14:33:47;2.10;99.90
25963;DHT22;13760;52.588;13.406;2023-11-22T14:36:12;2.10;99.90
25963;DHT22;13760;52.588;13.406;2023-11-22T14:38:41;2.10;99.90
25963;DHT22;13760;52.588;13.406;2023-11-22T14:41:07;2.00;99.90
25963;DHT22;13760;52.588;13.406;2023-11-22T14:43:35;2.00;99.90
25963;DHT22;13760;52.588;13.406;2023-11-22T14:46:01;2.00;99.90
25963;DHT22;13760;52.588;13.406;2023-11-22T14:48:26;2.00;99.90
25963;DHT22;13760;52.588;13.406;2023-11-22T14:50:52;1.90;99.90
25963;DHT22;13760;52.588;13.406;2023-11-22T14:53:18;1.90;99.90
25963;DHT22;13760;52.588;13.406;2023-11-22T14:55:43;1.90;99.90
25963;DHT22;13760;52.588;13.406;2023-11-22T14:58:09;1.90;99.90
25963;DHT22;13760;52.588;13.406;2023-11-22T15:00:34;1.80;99.90
25963;DHT22;13760;52.588;13.406;2023-11-22T15:03:01;1.80;99.90
25963;DHT22;13760;52.588;13.406;2023-11-22T15:05:27;1.80;99.90
25963;DHT22;13760;52.588;13.406;2023-11-22T15:07:53;1.70;99.90
25963;DHT22;13760;52.588;13.406;2023-11-22T15:10:21;1.70;99.90
25963;DHT22;13760;52.588;13.406;2023-11-22T15:12:47;1.70;99.90
25963;DHT22;13760;52.588;13.406;2023-11-22T15:15:14;1.70;99.90
25963;DHT22;13760;52.588;13.406;2023-11-22T15:17:39;1.70;99.90
25963;DHT22;13760;52.588;13.406;2023-11-22T15:20:06;1.70;99.90
25963;DHT22;13760;52.588;13.406;2023-11-22T15:22:36;1.70;99.90
25963;DHT22;13760;52.588;13.406;2023-11-22T15:25:03;1.70;99.90